Aérodrome :
LOGIN :

S'inscrire | Disclaimer

   EN    FR    IT 

 










Légende :    VFR   VFR Marginal   IFR   IFR Intensif   IFR Très Intensif
Visi : 
Plafond : 
>= 8 km
>= 3000ft
5 à 8 km
1000 à 3000 ft
1500m à 5 km
500 à 1000 ft
800 à 1500m
200 à 500 ft
< 800m
< 200 ft
Symboles :   Orages  Brouillard  Fortes neiges  Fortes précipitations  Vent > 20 kt
SIGMETs :   Divers  Orages  Givrage  Turbulence  Onde Orograph.  Cendres Volcan.






- Altitude de l'aérodrome : 1966 ft
- Code IATA : SGE


EDGS - Siegerland

DERNIER METAR :
  • 131150Z 20010KT 0600 R13/1100N -DZ FG VV/// 01/01 Q1001

METARs EXPIRÉS :
  • 131120Z 22010KT 170V230 0600 R31/0800N -DZ FG VV/// 01/01 Q1001
  • 131050Z 20008KT 0450 R13/0800V1100U FZFG VV/// 00/00 Q1001
  • 131020Z 20009KT 0600 R13/1000V1700D FZFG VV/// 00/00 Q1000
  • 130950Z 20009KT 2900 -SHSN BR OVC003 00/00 Q1000
  • 130920Z 20008KT 170V230 2400 -SHSN BR OVC002 00/M00 Q1000

TAF TAF EDGS
Valide du 13 à 12h jusqu'au 13 à 21h UTC


131100Z 1312/1321 21010KT 3000 BR BKN004
TEMPO 1312/1315 0300 FG OVC000
PROB30
TEMPO 1312/1321 1000 -SHSNRA BKN003TCU



MET'MAP, la Météo Aéronautique d'un coup d'oeil ! - Copyright ORBIFLY Décembre 2007 - Disclaimer

ORBIFLY MET'MAP TEAM :

Programmation & Développement : Alexandra Zaïnal
Conception & Développement : Baudouin d'Aumeries
Co-Programmation & Développement : Marc-Olivier Méhu
Soutien technique & logistique : Manuel Goepfert

Contact : metmap@orbifly.com




SOURCES & CREDITS :

   NOAA